Current Weather

Wilkes-Barre/Scranton Intl

Wilkes-Barre/Scranton, Pennsylvania (KAVP)

Report from: Tuesday, May 21, 2024 10:54 AM EDT
Current time: Tuesday, May 21, 2024 11:53 AM EDT

Nearby weather – Weather history – Daily summaries
Weather forecast

Temperature26.1°C (79.0°F)
Dew point16.1°C (61.0°F)
Winds 9 kts (4.6 m/s, 10.4 mph) West-Southwest (250°)
Visibility9 mi. (14.5 km)
Clouds Sky clear
Altimeter30.00 in.Hg (1016 mB)
Relative humidity54 %
Density altitude1,476 ft. (450 m)
Sea-level pressure101.5 kPa (1015 mB, 29.97 in.Hg)
Remarks System requires maintenance
Automated weather observing station with precipitation discriminator
Pressure falling more quickly
Flight conditions Visual Meteorological Conditions
Raw dataKAVP 211454Z 25009KT 9SM CLR 26/16 A3000 RMK AO2 SLP150 T02610161 58007 $
An error has occurred. This application may no longer respond until reloaded. Reload 🗙